createdAt,value
2018-04-26T00:01:55.705Z,15.18
2018-04-26T00:04:24.184Z,15.18
2018-04-26T00:06:52.520Z,15.21
2018-04-26T00:09:21.050Z,15.17
2018-04-26T00:11:49.588Z,15.17
2018-04-26T00:14:18.105Z,15.17
2018-04-26T00:16:46.550Z,15.18
2018-04-26T00:19:15.061Z,15.16
2018-04-26T00:21:43.548Z,15.15
2018-04-26T00:24:12.172Z,15.17
2018-04-26T00:26:40.635Z,15.13
2018-04-26T00:29:09.163Z,15.07
2018-04-26T00:31:37.324Z,15.08
2018-04-26T00:34:05.698Z,15.06
2018-04-26T00:36:34.248Z,14.99
2018-04-26T00:39:02.698Z,14.98
2018-04-26T00:41:31.232Z,14.98
2018-04-26T00:43:59.807Z,14.92
2018-04-26T00:46:28.346Z,14.89
2018-04-26T00:48:56.776Z,14.88
2018-04-26T00:51:37.207Z,14.88
2018-04-26T00:54:05.716Z,14.87
2018-04-26T00:56:34.199Z,14.90
2018-04-26T00:59:02.389Z,14.93
2018-04-26T01:01:30.882Z,14.90
2018-04-26T01:03:59.425Z,14.88
2018-04-26T01:06:28.020Z,14.87
2018-04-26T01:08:56.493Z,14.82
2018-04-26T01:11:24.959Z,14.73
2018-04-26T01:13:53.409Z,14.71
2018-04-26T01:16:21.951Z,14.76
2018-04-26T01:18:50.119Z,14.79
2018-04-26T01:21:18.285Z,14.79
2018-04-26T01:23:46.421Z,14.81
2018-04-26T01:26:14.966Z,14.82
2018-04-26T01:28:43.339Z,14.83
2018-04-26T01:31:11.877Z,14.78
2018-04-26T01:33:40.445Z,14.72
2018-04-26T01:36:09.077Z,14.70
2018-04-26T01:38:37.543Z,14.68
2018-04-26T01:41:05.964Z,14.63
2018-04-26T01:43:34.437Z,14.58
2018-04-26T01:46:02.809Z,14.57
2018-04-26T01:48:31.312Z,14.56
2018-04-26T01:50:59.771Z,14.53
2018-04-26T01:53:28.253Z,14.44
2018-04-26T01:55:56.789Z,14.43
2018-04-26T01:58:25.305Z,14.38
2018-04-26T02:00:53.474Z,14.28
2018-04-26T02:03:22.896Z,14.19
2018-04-26T02:05:51.442Z,14.08
2018-04-26T02:08:19.652Z,14.04
2018-04-26T02:10:48.182Z,13.96
2018-04-26T02:13:16.636Z,13.86
2018-04-26T02:15:45.128Z,13.86
2018-04-26T02:18:13.619Z,13.81
2018-04-26T02:20:42.106Z,13.78
2018-04-26T02:23:10.705Z,13.74
2018-04-26T02:25:39.225Z,13.72
2018-04-26T02:28:07.730Z,13.69
2018-04-26T02:30:36.146Z,13.62
2018-04-26T02:33:04.594Z,13.58
2018-04-26T02:35:33.110Z,13.57
2018-04-26T02:38:01.631Z,13.58
2018-04-26T02:40:30.187Z,13.56
2018-04-26T02:42:58.740Z,13.55
2018-04-26T02:45:27.294Z,13.51
2018-04-26T02:47:55.742Z,13.49
2018-04-26T02:50:24.264Z,13.42
2018-04-26T02:52:52.793Z,13.40
2018-04-26T02:55:23.323Z,13.42
2018-04-26T02:57:51.756Z,13.43
2018-04-26T03:00:20.936Z,13.44
2018-04-26T03:02:49.471Z,13.46
2018-04-26T03:05:17.994Z,13.48
2018-04-26T03:07:46.495Z,13.48
2018-04-26T03:10:14.967Z,13.46
2018-04-26T03:12:44.632Z,13.44
2018-04-26T03:15:13.160Z,13.42
2018-04-26T03:17:41.763Z,13.38
2018-04-26T03:20:10.124Z,13.35
2018-04-26T03:22:38.649Z,13.32
2018-04-26T03:25:07.111Z,13.27
2018-04-26T03:27:35.573Z,13.24
2018-04-26T03:30:04.138Z,13.21
2018-04-26T03:32:32.625Z,13.19
2018-04-26T03:35:01.148Z,13.18
2018-04-26T03:37:29.624Z,13.13
2018-04-26T03:39:58.115Z,13.10
2018-04-26T03:42:26.572Z,13.09
2018-04-26T03:44:55.093Z,13.10
2018-04-26T03:47:23.593Z,13.11
2018-04-26T03:49:52.103Z,13.10
2018-04-26T03:52:20.676Z,13.04
2018-04-26T03:54:49.176Z,13.04
2018-04-26T03:57:17.727Z,13.03
2018-04-26T03:59:57.996Z,13.00
2018-04-26T04:02:38.386Z,12.96
2018-04-26T04:05:18.551Z,12.94
2018-04-26T04:07:47.094Z,12.93
2018-04-26T04:10:15.545Z,12.96
2018-04-26T04:12:44.274Z,12.93
2018-04-26T04:15:12.775Z,12.96
2018-04-26T04:17:40.966Z,12.92
2018-04-26T04:20:09.418Z,12.89
2018-04-26T04:22:37.959Z,12.91
2018-04-26T04:25:06.523Z,12.84
2018-04-26T04:27:35.012Z,12.85
2018-04-26T04:30:03.555Z,12.82
2018-04-26T04:32:32.071Z,12.81
2018-04-26T04:35:00.622Z,12.83
2018-04-26T04:37:29.104Z,12.85
2018-04-26T04:39:57.376Z,12.84
2018-04-26T04:42:25.721Z,12.80
2018-04-26T04:44:54.250Z,12.82
2018-04-26T04:47:22.780Z,12.84
2018-04-26T04:49:51.286Z,12.82
2018-04-26T04:52:19.832Z,12.80
2018-04-26T04:54:48.332Z,12.83
2018-04-26T04:57:16.885Z,12.85
2018-04-26T04:59:45.387Z,12.84
2018-04-26T05:02:13.867Z,12.83
2018-04-26T05:04:42.070Z,12.86
2018-04-26T05:07:10.557Z,12.87
2018-04-26T05:09:39.067Z,12.80
2018-04-26T05:12:07.586Z,12.77
2018-04-26T05:14:36.127Z,12.79
2018-04-26T05:17:04.620Z,12.73
2018-04-26T05:19:33.126Z,12.65
2018-04-26T05:22:01.649Z,12.57
2018-04-26T05:24:30.177Z,12.49
2018-04-26T05:26:58.322Z,12.47
2018-04-26T05:29:26.852Z,12.41
2018-04-26T05:31:55.314Z,12.37
2018-04-26T05:34:23.765Z,12.38
2018-04-26T05:36:52.209Z,12.27
2018-04-26T05:39:20.662Z,12.21
2018-04-26T05:41:49.238Z,12.22
2018-04-26T05:44:17.759Z,12.27
2018-04-26T05:46:46.268Z,12.24
2018-04-26T05:49:14.595Z,12.25
2018-04-26T05:51:43.067Z,12.29
2018-04-26T05:54:11.518Z,12.35
2018-04-26T05:56:40.041Z,12.35
2018-04-26T05:59:08.511Z,12.32
2018-04-26T06:01:36.977Z,12.40
2018-04-26T06:04:05.768Z,12.39
2018-04-26T06:06:34.616Z,12.37
2018-04-26T06:09:02.985Z,12.39
2018-04-26T06:11:31.484Z,12.28
2018-04-26T06:14:00.012Z,12.36
2018-04-26T06:16:28.517Z,12.29
2018-04-26T06:18:57.022Z,12.28
2018-04-26T06:21:25.531Z,12.28
2018-04-26T06:23:54.037Z,12.24
2018-04-26T06:26:22.476Z,12.14
2018-04-26T06:28:50.632Z,12.20
2018-04-26T06:31:19.082Z,12.19
2018-04-26T06:33:47.633Z,12.22
2018-04-26T06:36:16.246Z,12.27
2018-04-26T06:38:44.669Z,12.34
2018-04-26T06:41:13.199Z,12.45
2018-04-26T06:43:41.629Z,12.47
2018-04-26T06:46:10.078Z,12.31
2018-04-26T06:48:38.567Z,12.34
2018-04-26T06:51:06.743Z,12.45
2018-04-26T06:53:35.355Z,12.54
2018-04-26T06:56:03.820Z,12.64
2018-04-26T06:58:32.334Z,12.73
2018-04-26T07:01:00.841Z,12.86
2018-04-26T07:03:29.374Z,12.96
2018-04-26T07:05:57.773Z,12.89
2018-04-26T07:08:26.261Z,12.74
2018-04-26T07:10:54.418Z,12.68
2018-04-26T07:13:22.850Z,12.76
2018-04-26T07:15:51.369Z,12.84
2018-04-26T07:18:19.837Z,12.88
2018-04-26T07:20:48.458Z,12.93
2018-04-26T07:23:17.018Z,12.98
2018-04-26T07:25:45.488Z,12.92
2018-04-26T07:28:13.852Z,13.02
2018-04-26T07:30:42.018Z,13.17
2018-04-26T07:33:10.513Z,13.31
2018-04-26T07:35:39.076Z,13.39
2018-04-26T07:38:07.618Z,13.47
2018-04-26T07:40:36.886Z,13.56
2018-04-26T07:43:05.367Z,13.58
2018-04-26T07:45:33.869Z,13.77
2018-04-26T07:48:02.345Z,13.71
2018-04-26T07:50:30.739Z,13.78
2018-04-26T07:52:59.053Z,13.82
2018-04-26T07:55:27.532Z,13.68
2018-04-26T07:57:56.015Z,13.57
2018-04-26T08:00:24.207Z,13.56
2018-04-26T08:02:52.670Z,13.60
2018-04-26T08:05:21.138Z,13.67
2018-04-26T08:07:49.620Z,13.62
2018-04-26T08:10:18.208Z,13.50
2018-04-26T08:12:46.675Z,13.45
2018-04-26T08:15:15.185Z,13.38
2018-04-26T08:17:43.507Z,13.44
2018-04-26T08:20:12.005Z,13.60
2018-04-26T08:22:40.455Z,13.66
2018-04-26T08:25:08.977Z,13.69
2018-04-26T08:27:37.421Z,13.78
2018-04-26T08:30:05.934Z,13.83
2018-04-26T08:32:34.397Z,13.80
2018-04-26T08:35:02.911Z,13.91
2018-04-26T08:37:31.426Z,14.12
2018-04-26T08:39:59.577Z,14.24
2018-04-26T08:42:28.046Z,14.20
2018-04-26T08:44:56.525Z,14.14
2018-04-26T08:47:24.998Z,14.21
2018-04-26T08:49:53.472Z,14.21
2018-04-26T08:52:21.989Z,14.25
2018-04-26T08:54:50.470Z,14.33
2018-04-26T08:57:18.981Z,14.40
2018-04-26T08:59:47.522Z,14.38
2018-04-26T09:02:16.697Z,14.27
2018-04-26T09:04:45.224Z,14.24
2018-04-26T09:07:13.720Z,14.23
2018-04-26T09:09:42.254Z,14.13
2018-04-26T09:12:10.760Z,14.11
2018-04-26T09:14:39.271Z,14.21
2018-04-26T09:17:07.775Z,14.37
2018-04-26T09:19:36.200Z,14.50
2018-04-26T09:22:04.741Z,14.72
2018-04-26T09:24:32.900Z,14.87
2018-04-26T09:27:01.344Z,14.71
2018-04-26T09:29:29.758Z,14.65
2018-04-26T09:31:58.272Z,14.83
2018-04-26T09:34:26.783Z,14.93
2018-04-26T09:36:55.254Z,15.05
2018-04-26T09:39:23.448Z,15.16
2018-04-26T09:41:51.718Z,15.27
2018-04-26T09:44:20.035Z,15.10
2018-04-26T09:46:48.320Z,15.14
2018-04-26T09:49:16.485Z,15.25
2018-04-26T09:51:44.656Z,15.29
2018-04-26T09:54:19.524Z,15.13
2018-04-26T09:56:47.860Z,14.89
2018-04-26T09:59:16.192Z,14.65
2018-04-26T10:01:44.667Z,14.60
2018-04-26T10:04:16.833Z,14.59
2018-04-26T10:06:50.993Z,14.71
2018-04-26T10:09:21.958Z,14.75
2018-04-26T10:11:50.411Z,14.76
2018-04-26T10:14:18.835Z,14.57
2018-04-26T10:16:47.127Z,14.65
2018-04-26T10:19:15.324Z,14.59
2018-04-26T10:21:43.573Z,14.59
2018-04-26T10:24:11.943Z,14.55
2018-04-26T10:26:40.243Z,14.57
2018-04-26T10:29:08.486Z,14.54
2018-04-26T10:31:36.658Z,14.54
2018-04-26T10:34:04.840Z,14.63
2018-04-26T10:36:32.989Z,14.86
2018-04-26T10:39:01.170Z,14.95
2018-04-26T10:41:29.296Z,15.21
2018-04-26T10:43:57.463Z,15.37
2018-04-26T10:46:38.306Z,15.41
2018-04-26T10:49:06.500Z,15.47
2018-04-26T10:51:38.423Z,15.55
2018-04-26T10:54:06.602Z,15.35
2018-04-26T10:56:37.861Z,15.44
2018-04-26T10:59:06.128Z,15.12
2018-04-26T11:01:34.308Z,14.98
2018-04-26T11:04:02.490Z,14.89
2018-04-26T11:06:30.640Z,14.88
2018-04-26T11:08:58.817Z,14.88
2018-04-26T11:11:27.155Z,14.80
2018-04-26T11:13:55.687Z,14.70
2018-04-26T11:16:23.863Z,14.55
2018-04-26T11:18:52.049Z,14.47
2018-04-26T11:21:20.216Z,14.40
2018-04-26T11:23:48.433Z,14.30
2018-04-26T11:26:16.633Z,14.36
2018-04-26T11:28:44.798Z,14.50
2018-04-26T11:31:12.956Z,14.52
2018-04-26T11:33:41.130Z,14.58
2018-04-26T11:36:09.335Z,14.78
2018-04-26T11:38:37.489Z,14.94
2018-04-26T11:41:05.649Z,15.04
2018-04-26T11:43:34.109Z,14.97
2018-04-26T11:46:02.528Z,14.93
2018-04-26T11:48:30.956Z,14.75
2018-04-26T11:50:59.356Z,14.75
2018-04-26T11:53:27.739Z,14.79
2018-04-26T11:55:56.137Z,14.84
2018-04-26T11:58:25.579Z,15.00
2018-04-26T12:00:54.018Z,15.08
2018-04-26T12:03:22.315Z,14.99
2018-04-26T12:05:50.650Z,14.81
2018-04-26T12:08:22.667Z,14.91
2018-04-26T12:10:50.935Z,15.14
2018-04-26T12:13:19.151Z,15.29
2018-04-26T12:15:47.383Z,15.20
2018-04-26T12:18:17.596Z,15.15
2018-04-26T12:20:45.917Z,15.27
2018-04-26T12:23:17.948Z,15.36
2018-04-26T12:25:47.850Z,15.54
2018-04-26T12:28:16.140Z,15.57
2018-04-26T12:30:44.413Z,15.62
2018-04-26T12:33:12.797Z,15.59
2018-04-26T12:35:41.152Z,15.61
2018-04-26T12:38:09.489Z,15.62
2018-04-26T12:40:37.916Z,15.65
2018-04-26T12:45:38.945Z,15.50
2018-04-26T12:48:07.185Z,15.40
2018-04-26T12:50:35.383Z,15.37
2018-04-26T12:53:03.635Z,15.34
2018-04-26T12:55:32.015Z,15.19
2018-04-26T12:58:00.181Z,15.04
2018-04-26T13:00:28.339Z,14.97
2018-04-26T13:02:56.517Z,15.02
2018-04-26T13:05:25.594Z,14.98
2018-04-26T13:07:57.369Z,14.90
2018-04-26T13:10:29.089Z,14.88
2018-04-26T13:12:57.316Z,15.06
2018-04-26T13:15:25.457Z,15.16
2018-04-26T13:17:53.639Z,15.32
2018-04-26T13:20:21.830Z,15.45
2018-04-26T13:22:50.009Z,15.68
2018-04-26T13:25:18.171Z,16.03
2018-04-26T13:27:46.302Z,16.42
2018-04-26T13:30:17.475Z,16.38
2018-04-26T13:32:46.258Z,16.00
2018-04-26T13:35:14.487Z,15.70
2018-04-26T13:37:42.638Z,15.47
2018-04-26T13:40:10.826Z,15.50
2018-04-26T13:42:38.985Z,15.69
2018-04-26T13:45:07.196Z,15.98
2018-04-26T13:47:35.387Z,16.04
2018-04-26T13:50:03.565Z,16.21
2018-04-26T13:55:04.542Z,15.66
2018-04-26T13:57:32.720Z,15.74
2018-04-26T14:00:00.937Z,15.86
2018-04-26T14:02:29.153Z,15.98
2018-04-26T14:04:57.315Z,15.94
2018-04-26T14:07:25.460Z,15.88
2018-04-26T14:09:57.070Z,15.80
2018-04-26T14:12:26.645Z,15.78
2018-04-26T14:14:55.343Z,15.81
2018-04-26T14:17:23.553Z,16.06
2018-04-26T14:19:51.690Z,16.38
2018-04-26T14:22:19.827Z,16.51
2018-04-26T14:24:48.014Z,16.69
2018-04-26T14:27:16.319Z,16.68
2018-04-26T14:29:44.473Z,16.47
2018-04-26T14:32:12.652Z,16.36
2018-04-26T14:34:40.797Z,16.30
2018-04-26T14:37:09.090Z,16.31
2018-04-26T14:39:37.188Z,16.29
2018-04-26T14:42:05.384Z,16.33
2018-04-26T14:44:33.576Z,16.35
2018-04-26T14:47:02.047Z,16.37
2018-04-26T14:49:30.261Z,16.38
2018-04-26T14:51:58.420Z,16.35
2018-04-26T14:54:26.682Z,16.32
2018-04-26T14:56:54.893Z,16.30
2018-04-26T14:59:23.075Z,16.53
2018-04-26T15:01:51.236Z,16.65
2018-04-26T15:04:19.363Z,16.63
2018-04-26T15:06:47.524Z,16.60
2018-04-26T15:09:18.196Z,16.52
2018-04-26T15:11:46.418Z,16.41
2018-04-26T15:14:14.571Z,16.33
2018-04-26T15:16:42.737Z,16.31
2018-04-26T15:19:12.140Z,16.30
2018-04-26T15:21:40.350Z,16.19
2018-04-26T15:24:08.484Z,16.04
2018-04-26T15:26:36.631Z,16.09
2018-04-26T15:29:06.460Z,16.20
2018-04-26T15:31:34.595Z,16.25
2018-04-26T15:34:02.778Z,16.03
2018-04-26T15:36:31.023Z,15.83
2018-04-26T15:38:59.197Z,16.37
2018-04-26T15:41:27.363Z,16.77
2018-04-26T15:43:55.505Z,16.80
2018-04-26T15:46:23.696Z,16.59
2018-04-26T15:48:51.848Z,16.69
2018-04-26T15:51:20.079Z,16.59
2018-04-26T15:54:00.207Z,16.52
2018-04-26T15:56:46.074Z,16.43
2018-04-26T15:59:26.061Z,16.15
2018-04-26T16:05:32.161Z,15.85
2018-04-26T16:08:19.682Z,15.76
2018-04-26T16:11:07.766Z,15.71
2018-04-26T16:13:53.513Z,15.49
2018-04-26T16:16:39.344Z,15.33
2018-04-26T16:19:27.024Z,15.28
2018-04-26T16:22:12.826Z,15.24
2018-04-26T16:24:54.736Z,15.17
2018-04-26T16:27:42.377Z,15.20
2018-04-26T16:30:25.483Z,15.25
2018-04-26T16:33:05.584Z,15.21
2018-04-26T16:35:47.342Z,15.26
2018-04-26T16:38:27.346Z,15.34
2018-04-26T16:40:57.991Z,15.36
2018-04-26T16:43:26.242Z,15.34
2018-04-26T16:45:54.612Z,15.32
2018-04-26T16:48:22.929Z,15.27
2018-04-26T16:50:51.228Z,15.12
2018-04-26T16:53:19.622Z,15.07
2018-04-26T16:55:47.880Z,15.05
2018-04-26T16:58:17.391Z,15.01
2018-04-26T17:00:45.748Z,15.02
2018-04-26T17:03:14.028Z,14.99
2018-04-26T17:05:46.221Z,14.99
2018-04-26T17:08:15.820Z,15.05
2018-04-26T17:10:44.204Z,15.06
2018-04-26T17:13:12.446Z,15.02
2018-04-26T17:15:40.872Z,15.03
2018-04-26T17:18:11.320Z,14.95
2018-04-26T17:20:39.706Z,14.91
2018-04-26T17:23:10.170Z,14.91
2018-04-26T17:25:38.683Z,14.88
2018-04-26T17:28:08.076Z,14.83
2018-04-26T17:30:36.370Z,14.80
2018-04-26T17:33:04.624Z,14.78
2018-04-26T17:35:32.853Z,14.77
2018-04-26T17:38:01.238Z,14.72
2018-04-26T17:40:29.462Z,14.67
2018-04-26T17:42:57.706Z,14.62
2018-04-26T17:45:25.991Z,14.55
2018-04-26T17:47:55.990Z,14.50
2018-04-26T17:50:24.252Z,14.48
2018-04-26T17:52:52.518Z,14.45
2018-04-26T17:55:20.751Z,14.44
2018-04-26T17:57:49.040Z,14.38
2018-04-26T18:00:19.453Z,14.33
2018-04-26T18:02:48.414Z,14.30
2018-04-26T18:05:16.623Z,14.27
2018-04-26T18:07:45.587Z,14.23
2018-04-26T18:10:13.847Z,14.19
2018-04-26T18:12:42.042Z,14.15
2018-04-26T18:15:10.246Z,14.10
2018-04-26T18:17:38.459Z,14.05
2018-04-26T18:20:08.577Z,13.97
2018-04-26T18:22:35.101Z,13.93
2018-04-26T18:25:03.349Z,13.90
2018-04-26T18:27:31.607Z,13.86
2018-04-26T18:30:02.680Z,13.84
2018-04-26T18:32:30.952Z,13.82
2018-04-26T18:34:59.175Z,13.78
2018-04-26T18:37:27.485Z,13.74
2018-04-26T18:39:55.762Z,13.73
2018-04-26T18:42:23.958Z,13.71
2018-04-26T18:44:52.217Z,13.71
2018-04-26T18:47:20.462Z,13.71
2018-04-26T18:49:48.772Z,13.68
2018-04-26T18:52:17.092Z,13.64
2018-04-26T18:54:45.332Z,13.63
2018-04-26T18:57:15.385Z,13.62
2018-04-26T18:59:44.398Z,13.59
2018-04-26T19:02:12.760Z,13.55
2018-04-26T19:04:40.984Z,13.52
2018-04-26T19:07:09.263Z,13.49
2018-04-26T19:09:41.138Z,13.46
2018-04-26T19:12:11.343Z,13.44
2018-04-26T19:14:39.660Z,13.41
2018-04-26T19:17:12.782Z,13.40
2018-04-26T19:19:42.929Z,13.37
2018-04-26T19:22:11.255Z,13.33
2018-04-26T19:24:39.569Z,13.28
2018-04-26T19:27:07.730Z,13.26
2018-04-26T19:29:36.036Z,13.23
2018-04-26T19:32:07.901Z,13.22
2018-04-26T19:34:36.388Z,13.19
2018-04-26T19:37:04.648Z,13.16
2018-04-26T19:39:32.942Z,13.13
2018-04-26T19:42:01.155Z,13.07
2018-04-26T19:44:29.592Z,13.00
2018-04-26T19:46:57.814Z,12.95
2018-04-26T19:49:28.847Z,12.88
2018-04-26T19:51:57.187Z,12.81
2018-04-26T19:54:25.465Z,12.75
2018-04-26T19:56:53.737Z,12.69
2018-04-26T20:02:48.690Z,12.54
2018-04-26T20:05:17.126Z,12.52
2018-04-26T20:07:45.517Z,12.51
2018-04-26T20:10:14.919Z,12.51
2018-04-26T20:12:45.978Z,12.52
2018-04-26T20:15:14.595Z,12.51
2018-04-26T20:17:43.948Z,12.50
2018-04-26T20:20:12.225Z,12.48
2018-04-26T20:22:40.513Z,12.48
2018-04-26T20:25:10.942Z,12.45
2018-04-26T20:27:39.992Z,12.41
2018-04-26T20:30:09.057Z,12.36
2018-04-26T20:32:37.507Z,12.33
2018-04-26T20:35:05.800Z,12.27
2018-04-26T20:37:34.155Z,12.23
2018-04-26T20:40:02.414Z,12.16
2018-04-26T20:42:34.441Z,12.11
2018-04-26T20:45:02.628Z,12.11
2018-04-26T20:47:30.877Z,12.07
2018-04-26T20:49:59.061Z,12.03
2018-04-26T20:52:27.329Z,11.99
2018-04-26T20:54:55.523Z,11.91
2018-04-26T20:57:23.746Z,11.88
2018-04-26T20:59:52.078Z,11.85
2018-04-26T21:02:20.361Z,11.84
2018-04-26T21:04:48.536Z,11.82
2018-04-26T21:07:16.740Z,11.79
2018-04-26T21:09:45.706Z,11.77
2018-04-26T21:12:16.795Z,11.78
2018-04-26T21:14:45.062Z,11.79
2018-04-26T21:17:14.034Z,11.79
2018-04-26T21:19:42.268Z,11.79
2018-04-26T21:22:10.488Z,11.79
2018-04-26T21:24:38.674Z,11.78
2018-04-26T21:27:06.879Z,11.76
2018-04-26T21:29:35.216Z,11.76
2018-04-26T21:32:03.471Z,11.76
2018-04-26T21:34:31.693Z,11.76
2018-04-26T21:36:59.968Z,11.74
2018-04-26T21:39:28.153Z,11.73
2018-04-26T21:41:56.387Z,11.70
2018-04-26T21:44:24.573Z,11.70
2018-04-26T21:46:54.905Z,11.72
2018-04-26T21:49:23.592Z,11.73
2018-04-26T21:51:57.220Z,11.74
2018-04-26T21:54:30.897Z,11.74
2018-04-26T21:57:04.843Z,11.69
2018-04-26T21:59:38.774Z,11.65
2018-04-26T22:02:12.713Z,11.65
2018-04-26T22:04:57.682Z,11.59
2018-04-26T22:07:25.985Z,11.53
2018-04-26T22:09:54.239Z,11.51
2018-04-26T22:12:24.046Z,11.50
2018-04-26T22:14:52.371Z,11.49
2018-04-26T22:17:20.594Z,11.48
2018-04-26T22:19:51.493Z,11.45
2018-04-26T22:22:19.720Z,11.43
2018-04-26T22:24:48.042Z,11.44
2018-04-26T22:27:16.253Z,11.45
2018-04-26T22:29:44.511Z,11.46
2018-04-26T22:32:13.585Z,11.46
2018-04-26T22:34:41.783Z,11.44
2018-04-26T22:37:10.051Z,11.41
2018-04-26T22:39:38.260Z,11.40
2018-04-26T22:42:07.218Z,11.43
2018-04-26T22:44:35.466Z,11.45
2018-04-26T22:47:04.466Z,11.46
2018-04-26T22:49:32.756Z,11.46
2018-04-26T22:52:00.974Z,11.47
2018-04-26T22:54:29.190Z,11.45
2018-04-26T22:56:57.424Z,11.44
2018-04-26T22:59:25.654Z,11.43
2018-04-26T23:01:53.871Z,11.41
2018-04-26T23:04:22.121Z,11.41
2018-04-26T23:06:50.334Z,11.39
2018-04-26T23:09:20.264Z,11.38
2018-04-26T23:11:50.257Z,11.37
2018-04-26T23:14:18.465Z,11.37
2018-04-26T23:16:47.442Z,11.36
2018-04-26T23:19:15.720Z,11.35
2018-04-26T23:21:45.656Z,11.35
2018-04-26T23:24:13.874Z,11.34
2018-04-26T23:26:42.056Z,11.32
2018-04-26T23:29:10.274Z,11.29
2018-04-26T23:31:38.527Z,11.23
2018-04-26T23:34:06.770Z,11.17
2018-04-26T23:36:37.028Z,11.14
2018-04-26T23:39:07.663Z,11.11
2018-04-26T23:41:35.894Z,11.03
2018-04-26T23:44:04.100Z,10.99
2018-04-26T23:46:32.325Z,10.94
2018-04-26T23:49:00.501Z,10.93
2018-04-26T23:51:30.901Z,10.90
2018-04-26T23:53:59.073Z,10.86
2018-04-26T23:56:27.283Z,10.82
2018-04-26T23:58:55.584Z,10.79
